createdAt,value
2023-03-23T00:00:03.164Z,1014.47
2023-03-23T00:05:03.019Z,1014.58
2023-03-23T00:10:03.337Z,1014.63
2023-03-23T00:15:03.091Z,1014.66
2023-03-23T00:20:03.225Z,1014.71
2023-03-23T00:25:03.093Z,1014.84
2023-03-23T00:30:03.000Z,1014.95
2023-03-23T00:35:08.047Z,1015.04
2023-03-23T00:40:03.056Z,1015.07
2023-03-23T00:45:02.994Z,1015.17
2023-03-23T00:50:03.154Z,1015.13
2023-03-23T00:55:03.020Z,1015.14
2023-03-23T01:00:05.426Z,1015.24
2023-03-23T01:05:02.992Z,1015.24
2023-03-23T01:10:03.089Z,1015.25
2023-03-23T01:15:03.159Z,1015.25
2023-03-23T01:20:03.136Z,1015.22
2023-03-23T01:25:04.649Z,1015.26
2023-03-23T01:30:03.155Z,1015.25
2023-03-23T01:35:03.686Z,1015.25
2023-03-23T01:40:03.787Z,1015.27
2023-03-23T01:45:03.065Z,1015.31
2023-03-23T01:50:03.122Z,1015.31
2023-03-23T01:55:03.249Z,1015.41
2023-03-23T02:00:03.163Z,1015.36
2023-03-23T02:05:03.000Z,1015.35
2023-03-23T02:10:03.159Z,1015.33
2023-03-23T02:15:02.964Z,1015.32
2023-03-23T02:20:03.104Z,1015.32
2023-03-23T02:25:03.029Z,1015.24
2023-03-23T02:30:03.105Z,1015.17
2023-03-23T02:35:03.177Z,1015.15
2023-03-23T02:40:03.164Z,1015.22
2023-03-23T02:45:03.036Z,1015.3
2023-03-23T02:50:03.156Z,1015.34
2023-03-23T02:55:03.014Z,1015.37
2023-03-23T03:00:03.043Z,1015.37
2023-03-23T03:05:03.000Z,1015.43
2023-03-23T03:10:03.061Z,1015.43
2023-03-23T03:15:02.994Z,1015.4
2023-03-23T03:20:03.146Z,1015.32
2023-03-23T03:25:17.950Z,1015.3
2023-03-23T03:30:03.127Z,1015.28
2023-03-23T03:35:02.984Z,1015.25
2023-03-23T03:40:03.191Z,1015.23
2023-03-23T03:45:03.115Z,1015.14
2023-03-23T03:50:03.247Z,1015.13
2023-03-23T03:55:02.953Z,1015.07
2023-03-23T04:00:03.213Z,1015.09
2023-03-23T04:05:03.010Z,1015.08
2023-03-23T04:10:05.139Z,1015.04
2023-03-23T04:15:06.130Z,1015.12
2023-03-23T04:20:03.088Z,1015.09
2023-03-23T04:25:03.092Z,1015.08
2023-03-23T04:30:03.150Z,1015.14
2023-03-23T04:35:12.657Z,1015.13
2023-03-23T04:40:03.211Z,1015.12
2023-03-23T04:45:03.002Z,1015.16
2023-03-23T04:50:03.130Z,1015.16
2023-03-23T04:55:02.995Z,1015.15
2023-03-23T05:00:03.042Z,1015.18
2023-03-23T05:05:02.947Z,1015.15
2023-03-23T05:10:08.116Z,1015.18
2023-03-23T05:15:03.059Z,1015.08
2023-03-23T05:20:03.144Z,1015.0
2023-03-23T05:25:02.981Z,1014.98
2023-03-23T05:30:03.086Z,1014.97
2023-03-23T05:35:02.923Z,1014.9
2023-03-23T05:40:03.099Z,1014.88
2023-03-23T05:45:02.914Z,1014.88
2023-03-23T05:50:03.082Z,1014.84
2023-03-23T05:55:02.974Z,1014.83
2023-03-23T06:00:03.204Z,1014.82
2023-03-23T06:05:03.000Z,1014.75
2023-03-23T06:10:03.154Z,1014.71
2023-03-23T06:15:02.925Z,1014.66
2023-03-23T06:20:03.052Z,1014.66
2023-03-23T06:25:03.014Z,1014.64
2023-03-23T06:30:03.207Z,1014.58
2023-03-23T06:35:02.949Z,1014.53
2023-03-23T06:40:03.064Z,1014.51
2023-03-23T06:45:02.997Z,1014.47
2023-03-23T06:50:03.103Z,1014.45
2023-03-23T06:55:03.085Z,1014.43
2023-03-23T07:00:03.033Z,1014.39
2023-03-23T07:05:02.874Z,1014.43
2023-03-23T07:10:03.093Z,1014.42
2023-03-23T07:15:02.987Z,1014.45
2023-03-23T07:20:03.513Z,1014.42
2023-03-23T07:25:03.043Z,1014.38
2023-03-23T07:30:03.094Z,1014.38
2023-03-23T07:35:03.185Z,1014.37
2023-03-23T07:40:03.004Z,1014.42
2023-03-23T07:45:03.043Z,1014.44
2023-03-23T07:50:02.998Z,1014.44
2023-03-23T07:55:03.001Z,1014.46
2023-03-23T08:00:03.106Z,1014.51
2023-03-23T08:05:02.967Z,1014.54
2023-03-23T08:10:03.080Z,1014.54
2023-03-23T08:15:02.993Z,1014.59
2023-03-23T08:20:03.003Z,1014.58
2023-03-23T08:25:03.081Z,1014.6
2023-03-23T08:30:03.086Z,1014.65
2023-03-23T08:35:03.034Z,1014.72
2023-03-23T08:40:03.212Z,1014.79
2023-03-23T08:45:02.936Z,1014.86
2023-03-23T08:50:03.013Z,1014.92
2023-03-23T08:55:02.959Z,1015.0
2023-03-23T09:00:03.120Z,1015.02
2023-03-23T09:05:02.962Z,1015.02
2023-03-23T09:10:03.168Z,1014.99
2023-03-23T09:15:02.924Z,1014.97
2023-03-23T09:20:03.132Z,1014.97
2023-03-23T09:25:03.085Z,1015.0
2023-03-23T09:30:03.088Z,1015.0
2023-03-23T09:35:02.939Z,1015.05
2023-03-23T09:40:06.597Z,1015.12
2023-03-23T09:45:03.047Z,1015.22
2023-03-23T09:50:03.109Z,1015.32
2023-03-23T09:55:02.908Z,1015.34
2023-03-23T10:00:03.081Z,1015.32
2023-03-23T10:05:02.988Z,1015.34
2023-03-23T10:10:03.142Z,1015.46
2023-03-23T10:15:03.217Z,1015.57
2023-03-23T10:20:03.097Z,1015.68
2023-03-23T10:25:02.974Z,1015.76
2023-03-23T10:30:03.085Z,1015.87
2023-03-23T10:35:03.018Z,1015.89
2023-03-23T10:40:03.032Z,1015.99
2023-03-23T10:45:03.237Z,1016.04
2023-03-23T10:50:03.105Z,1016.18
2023-03-23T10:55:03.000Z,1016.22
2023-03-23T11:00:03.114Z,1016.28
2023-03-23T11:05:09.221Z,1016.29
2023-03-23T11:10:03.128Z,1016.33
2023-03-23T11:15:02.928Z,1016.36
2023-03-23T11:20:03.112Z,1016.36
2023-03-23T11:25:03.012Z,1016.42
2023-03-23T11:30:03.081Z,1016.41
2023-03-23T11:35:13.977Z,1016.43
2023-03-23T11:40:03.042Z,1016.37
2023-03-23T11:45:02.976Z,1016.39
2023-03-23T11:50:03.430Z,1016.44
2023-03-23T11:55:03.036Z,1016.52
2023-03-23T12:00:03.168Z,1016.47
2023-03-23T12:05:03.007Z,1016.51
2023-03-23T12:10:03.272Z,1016.51
2023-03-23T12:15:03.019Z,1016.55
2023-03-23T12:20:03.076Z,1016.56
2023-03-23T12:25:03.017Z,1016.64
2023-03-23T12:30:03.452Z,1016.75
2023-03-23T12:35:02.986Z,1016.77
2023-03-23T12:40:03.144Z,1016.76
2023-03-23T12:45:02.912Z,1016.76
2023-03-23T12:50:03.068Z,1016.74
2023-03-23T12:55:02.964Z,1016.61
2023-03-23T13:00:03.038Z,1016.72
2023-03-23T13:05:02.984Z,1016.71
2023-03-23T13:10:03.420Z,1016.62
2023-03-23T13:15:03.047Z,1016.71
2023-03-23T13:20:03.022Z,1016.61
2023-03-23T13:25:03.102Z,1016.6
2023-03-23T13:30:02.975Z,1016.61
2023-03-23T13:35:02.973Z,1016.59
2023-03-23T13:40:03.058Z,1016.51
2023-03-23T13:45:03.011Z,1016.5
2023-03-23T13:50:03.111Z,1016.52
2023-03-23T13:55:02.997Z,1016.5
2023-03-23T14:00:03.116Z,1016.44
2023-03-23T14:05:03.046Z,1016.42
2023-03-23T14:10:03.095Z,1016.4
2023-03-23T14:15:02.949Z,1016.38
2023-03-23T14:20:03.097Z,1016.37
2023-03-23T14:25:02.984Z,1016.31
2023-03-23T14:30:03.029Z,1016.25
2023-03-23T14:35:02.946Z,1016.28
2023-03-23T14:40:03.365Z,1016.25
2023-03-23T14:45:03.038Z,1016.2
2023-03-23T14:50:03.083Z,1016.22
2023-03-23T14:55:02.940Z,1016.17
2023-03-23T15:00:03.090Z,1016.11
2023-03-23T15:05:03.005Z,1016.13
2023-03-23T15:10:03.068Z,1016.02
2023-03-23T15:15:03.026Z,1015.94
2023-03-23T15:20:03.183Z,1015.87
2023-03-23T15:25:03.022Z,1015.8
2023-03-23T15:30:03.117Z,1015.72
2023-03-23T15:35:04.689Z,1015.6
2023-03-23T15:40:03.172Z,1015.58
2023-03-23T15:45:02.994Z,1015.52
2023-03-23T15:50:03.095Z,1015.37
2023-03-23T15:55:02.958Z,1015.38
2023-03-23T16:00:03.069Z,1015.28
2023-03-23T16:05:03.000Z,1015.23
2023-03-23T16:10:03.025Z,1015.15
2023-03-23T16:15:03.010Z,1015.13
2023-03-23T16:20:03.009Z,1015.06
2023-03-23T16:25:03.109Z,1014.99
2023-03-23T16:30:04.432Z,1014.96
2023-03-23T16:35:04.015Z,1014.95
2023-03-23T16:40:03.067Z,1014.83
2023-03-23T16:45:02.969Z,1014.77
2023-03-23T16:50:03.047Z,1014.62
2023-03-23T16:55:03.049Z,1014.56
2023-03-23T17:00:03.054Z,1014.52
2023-03-23T17:05:03.063Z,1014.42
2023-03-23T17:10:03.054Z,1014.37
2023-03-23T17:15:03.011Z,1014.3
2023-03-23T17:20:03.232Z,1014.2
2023-03-23T17:25:02.983Z,1014.13
2023-03-23T17:30:03.151Z,1013.99
2023-03-23T17:35:03.001Z,1013.95
2023-03-23T17:40:03.032Z,1013.91
2023-03-23T17:45:02.978Z,1013.81
2023-03-23T17:50:11.172Z,1013.74
2023-03-23T17:55:02.975Z,1013.67
2023-03-23T18:00:03.193Z,1013.51
2023-03-23T18:05:02.993Z,1013.46
2023-03-23T18:10:03.036Z,1013.39
2023-03-23T18:15:02.993Z,1013.29
2023-03-23T18:20:03.063Z,1013.18
2023-03-23T18:25:03.060Z,1013.09
2023-03-23T18:30:03.118Z,1012.97
2023-03-23T18:35:02.969Z,1012.97
2023-03-23T18:40:03.045Z,1012.87
2023-03-23T18:45:02.985Z,1012.73
2023-03-23T18:50:03.180Z,1012.69
2023-03-23T18:55:03.082Z,1012.63
2023-03-23T19:00:03.083Z,1012.51
2023-03-23T19:05:02.965Z,1012.45
2023-03-23T19:10:03.293Z,1012.41
2023-03-23T19:15:02.971Z,1012.27
2023-03-23T19:20:03.088Z,1012.22
2023-03-23T19:25:03.051Z,1012.26
2023-03-23T19:30:03.089Z,1012.19
2023-03-23T19:35:03.455Z,1012.17
2023-03-23T19:40:09.837Z,1012.21
2023-03-23T19:45:03.464Z,1012.21
2023-03-23T19:50:03.042Z,1012.18
2023-03-23T19:55:03.792Z,1012.21
2023-03-23T20:00:03.056Z,1012.41
2023-03-23T20:05:03.058Z,1012.4
2023-03-23T20:10:03.113Z,1012.36
2023-03-23T20:15:02.989Z,1012.36
2023-03-23T20:20:03.064Z,1012.43
2023-03-23T20:25:02.986Z,1012.54
2023-03-23T20:30:04.181Z,1012.5
2023-03-23T20:35:03.036Z,1012.5
2023-03-23T20:40:03.088Z,1012.43
2023-03-23T20:45:03.014Z,1012.39
2023-03-23T20:50:03.880Z,1012.41
2023-03-23T20:55:03.065Z,1012.42
2023-03-23T21:00:03.176Z,1012.51
2023-03-23T21:05:02.993Z,1012.53
2023-03-23T21:10:03.323Z,1012.54
2023-03-23T21:15:02.972Z,1012.63
2023-03-23T21:20:03.086Z,1012.68
2023-03-23T21:25:03.069Z,1012.63
2023-03-23T21:30:03.079Z,1012.52
2023-03-23T21:35:02.983Z,1012.54
2023-03-23T21:40:03.155Z,1012.67
2023-03-23T21:45:04.014Z,1012.71
2023-03-23T21:50:03.078Z,1012.78
2023-03-23T21:55:03.017Z,1012.8
2023-03-23T22:00:03.122Z,1012.82
2023-03-23T22:05:02.998Z,1012.84
2023-03-23T22:10:03.014Z,1012.89
2023-03-23T22:15:03.122Z,1012.95
2023-03-23T22:20:03.231Z,1012.94
2023-03-23T22:25:03.002Z,1012.96
2023-03-23T22:30:03.075Z,1013.06
2023-03-23T22:35:03.085Z,1013.06
2023-03-23T22:40:03.260Z,1013.04
2023-03-23T22:45:03.016Z,1012.94
2023-03-23T22:50:03.111Z,1012.98
2023-03-23T22:55:03.042Z,1013.08
2023-03-23T23:00:03.036Z,1013.19
2023-03-23T23:05:03.003Z,1013.32
2023-03-23T23:10:03.113Z,1013.54
2023-03-23T23:15:03.008Z,1013.69
2023-03-23T23:20:03.056Z,1013.79
2023-03-23T23:25:03.142Z,1013.81
2023-03-23T23:30:03.025Z,1013.82
2023-03-23T23:35:03.099Z,1013.96
2023-03-23T23:40:03.253Z,1014.08
2023-03-23T23:45:03.052Z,1014.04
2023-03-23T23:50:03.087Z,1014.04
2023-03-23T23:55:02.959Z,1014.09
